Ana Sayfa
METAR-TAF:

METAR-TAF

Havaalanları :

Custer County Airport

Custer, Güney Dakota, Amerika Birleşik Devletleri

Enlem: 43-43-59N, Boylam: 103-37-03W, yükseklik: 1707 m

Güncel hava durumu gözlemi

Rapor saat 15:53 UTC de 59 dakika önce yapıldı.
Rüzgar güneydan 10 kt ve 17 kt'a kadar ani rüzgarlar, güney/güneydoğu ve güneybatı arasında değişken
Sıcaklık 11°C
Nem 58%
Basınç 1026 hPa
Görüş mesafesi: 16.1 km
11000 ft yükseklikte az bulutlu

METAR: KCUT 191553Z AUTO 18010G17KT 150V220 10SM FEW110 11/03 A3031 RMK AO2 SLP239 T01060028

Saat: 10:52 (16:52 UTC)


TAF: eksik

4.000'den fazla havaalanı için hava durumu gözlemleri ve tahminleri (METAR ve TAF raporları).

Kullanılabilir istasyonlar harita üzerinde sarı ve kırmızı noktalarla gösterilir.

İstasyonun adını görmek için fareyi noktanın üzerinde gezdirin.

Sonrasında hava gözlem ve tahminlerini görmek için tıklayın.

Haritayı değiştirmek için: yaklaştırmak için siyah artı işaretli yeşil düğmeye ve uzaklaştırmak için de eksi işaretli düğmeye hızla tıklayın; bitişik haritalar için yeşil okları kullanın.


METAR-TAF: